Time;durP1;ratioP1;P1;durP2;ratioP2;P2;SDS_P1;SDS_P2;PMS_P1;PMS_P2;Temp;Humidity;BMP_temperature;BMP_pressure;BME280_temperature;BME280_humidity;BME280_pressure;Samples;Min_cycle;Max_cycle;Signal;HPM_P1;HPM_P2
2023/06/30 00:00:25;;;;;;;11.90;2.70;;;14.70;99.90;;;;;;5125768;27;20088;-64
2023/06/30 00:02:51;;;;;;;9.45;2.30;;;14.70;99.90;;;;;;5133946;27;20057;-64
2023/06/30 00:05:18;;;;;;;6.22;2.60;;;14.70;99.90;;;;;;5141447;27;20561;-63
2023/06/30 00:07:44;;;;;;;8.98;2.30;;;14.60;99.90;;;;;;5136852;27;20066;-62
2023/06/30 00:10:10;;;;;;;8.98;2.15;;;14.60;99.90;;;;;;5142920;27;20042;-63
2023/06/30 00:12:36;;;;;;;6.35;2.17;;;14.60;99.90;;;;;;5117341;27;20039;-63
2023/06/30 00:15:02;;;;;;;9.18;2.30;;;14.60;99.90;;;;;;5135820;27;20122;-63
2023/06/30 00:17:28;;;;;;;8.93;2.13;;;14.50;99.90;;;;;;5124954;27;20391;-62
2023/06/30 00:19:57;;;;;;;6.13;2.10;;;14.50;99.90;;;;;;5122385;27;20063;-63
2023/06/30 00:22:23;;;;;;;7.32;2.28;;;14.50;99.90;;;;;;5125668;27;20074;-64
2023/06/30 00:24:55;;;;;;;7.85;2.28;;;14.40;99.90;;;;;;5117940;27;20081;-62
2023/06/30 00:27:22;;;;;;;10.70;2.20;;;14.40;99.90;;;;;;5140407;27;20381;-63
2023/06/30 00:29:48;;;;;;;6.25;2.08;;;14.40;99.90;;;;;;5127931;27;20064;-63
2023/06/30 00:32:14;;;;;;;7.63;1.85;;;14.40;99.90;;;;;;5122667;27;20465;-63
2023/06/30 00:34:40;;;;;;;10.02;1.98;;;14.30;99.90;;;;;;5144091;27;20087;-64
2023/06/30 00:37:06;;;;;;;8.48;1.95;;;14.30;99.90;;;;;;5137599;27;20103;-63
2023/06/30 00:39:32;;;;;;;7.30;1.98;;;14.30;99.90;;;;;;5141882;27;20110;-62
2023/06/30 00:41:58;;;;;;;10.15;1.98;;;14.30;99.90;;;;;;5133765;27;20485;-64
2023/06/30 00:44:23;;;;;;;10.88;1.80;;;14.20;99.90;;;;;;5125155;27;20428;-64
2023/06/30 00:46:49;;;;;;;10.40;1.90;;;14.20;99.90;;;;;;5118578;27;20039;-63
2023/06/30 00:49:15;;;;;;;6.45;1.60;;;14.20;99.90;;;;;;5124959;27;20074;-64
2023/06/30 00:51:41;;;;;;;10.77;2.30;;;14.20;99.90;;;;;;5146038;27;20030;-63
2023/06/30 00:54:07;;;;;;;6.35;1.67;;;14.20;99.90;;;;;;5122413;28;20413;-62
2023/06/30 00:56:33;;;;;;;6.00;1.70;;;14.10;99.90;;;;;;5098372;27;20043;-64
2023/06/30 00:58:59;;;;;;;7.93;1.83;;;14.10;99.90;;;;;;5117749;27;20069;-63
2023/06/30 01:01:38;;;;;;;5.03;1.48;;;14.10;99.90;;;;;;5122045;27;20035;-63
2023/06/30 01:04:38;;;;;;;5.28;2.13;;;14.10;99.90;;;;;;5125020;27;20043;-62
2023/06/30 01:07:04;;;;;;;7.88;1.90;;;14.00;99.90;;;;;;5143620;27;20054;-64
2023/06/30 01:09:36;;;;;;;6.40;1.80;;;14.00;99.90;;;;;;5119695;27;20050;-63
2023/06/30 01:12:01;;;;;;;7.95;1.60;;;14.00;99.90;;;;;;5144363;27;20031;-65
2023/06/30 01:14:30;;;;;;;7.85;2.08;;;14.00;99.90;;;;;;5116651;27;20088;-63
2023/06/30 01:16:57;;;;;;;6.55;1.58;;;14.00;99.90;;;;;;5127786;27;20054;-63
2023/06/30 01:19:38;;;;;;;6.82;1.60;;;13.90;99.90;;;;;;5126903;27;20396;-64
2023/06/30 01:22:25;;;;;;;6.73;1.50;;;13.90;99.90;;;;;;5129730;27;20043;-63
2023/06/30 01:24:56;;;;;;;5.78;1.65;;;13.80;99.90;;;;;;5139506;27;20133;-62
2023/06/30 01:27:22;;;;;;;10.35;2.05;;;13.70;99.90;;;;;;5126195;27;20039;-62
2023/06/30 01:29:50;;;;;;;6.95;2.35;;;13.60;99.90;;;;;;5126541;27;20138;-63
2023/06/30 01:32:16;;;;;;;6.43;1.90;;;13.60;99.90;;;;;;5147090;27;20046;-64
2023/06/30 01:34:46;;;;;;;3.92;1.60;;;13.50;99.90;;;;;;5126099;27;20046;-62
2023/06/30 01:37:13;;;;;;;10.23;1.90;;;13.50;99.90;;;;;;5137861;27;20035;-63
2023/06/30 01:39:40;;;;;;;8.82;2.10;;;13.40;99.90;;;;;;5150548;27;20507;-62
2023/06/30 01:42:06;;;;;;;8.13;1.60;;;13.40;99.90;;;;;;5125984;27;20397;-63
2023/06/30 01:44:34;;;;;;;6.68;1.80;;;13.30;99.90;;;;;;5123663;27;20038;-63
2023/06/30 01:47:01;;;;;;;6.63;1.63;;;13.30;99.90;;;;;;5129183;27;20059;-63
2023/06/30 01:49:27;;;;;;;5.15;1.88;;;13.30;99.90;;;;;;5124904;27;20064;-64
2023/06/30 01:51:53;;;;;;;5.68;1.92;;;13.30;99.90;;;;;;5140302;27;20045;-62
2023/06/30 01:54:19;;;;;;;6.68;1.85;;;13.20;99.90;;;;;;5140436;27;20035;-64
2023/06/30 01:56:49;;;;;;;5.03;1.67;;;13.20;99.90;;;;;;5124745;27;20031;-63
2023/06/30 01:59:14;;;;;;;8.45;2.05;;;13.20;99.90;;;;;;5128260;27;20453;-64
2023/06/30 02:01:40;;;;;;;5.72;1.83;;;13.20;99.90;;;;;;5149322;27;20125;-64
2023/06/30 02:04:06;;;;;;;4.45;1.90;;;13.10;99.90;;;;;;5121944;27;20046;-63
2023/06/30 02:06:31;;;;;;;6.05;2.22;;;13.10;99.90;;;;;;5142895;27;20135;-62
2023/06/30 02:08:57;;;;;;;4.47;1.83;;;13.00;99.90;;;;;;5140494;27;20604;-63
2023/06/30 02:11:22;;;;;;;3.47;1.70;;;13.00;99.90;;;;;;5147229;27;20040;-62
2023/06/30 02:13:48;;;;;;;5.82;1.73;;;12.90;99.90;;;;;;5122304;27;20092;-62
2023/06/30 02:16:14;;;;;;;5.25;1.92;;;12.90;99.90;;;;;;5148051;27;20091;-64
2023/06/30 02:18:39;;;;;;;5.35;2.10;;;12.80;99.90;;;;;;5125010;27;20031;-64
2023/06/30 02:21:05;;;;;;;9.40;2.50;;;12.90;99.90;;;;;;5120286;27;20052;-63
2023/06/30 02:23:31;;;;;;;7.65;2.35;;;12.80;99.90;;;;;;5143423;27;20493;-63
2023/06/30 02:25:57;;;;;;;8.43;2.20;;;12.80;99.90;;;;;;5127119;27;20114;-63
2023/06/30 02:28:22;;;;;;;6.28;2.28;;;12.70;99.90;;;;;;5128305;27;20038;-63
2023/06/30 02:30:48;;;;;;;6.00;2.20;;;12.70;99.90;;;;;;5123218;27;20039;-64
2023/06/30 02:33:14;;;;;;;6.55;2.10;;;12.70;99.90;;;;;;5123502;27;20078;-63
2023/06/30 02:35:39;;;;;;;6.38;2.20;;;12.60;99.90;;;;;;5146852;27;20055;-64
2023/06/30 02:38:06;;;;;;;7.45;2.28;;;12.60;99.90;;;;;;5121955;27;20031;-63
2023/06/30 02:40:32;;;;;;;6.97;2.67;;;12.50;99.90;;;;;;5119476;27;20115;-62
2023/06/30 02:42:58;;;;;;;4.47;2.40;;;12.50;99.90;;;;;;5130649;27;20042;-63
2023/06/30 02:45:24;;;;;;;6.57;2.33;;;12.40;99.90;;;;;;5127097;27;20042;-64
2023/06/30 02:47:49;;;;;;;4.07;2.10;;;12.40;99.90;;;;;;5124799;27;20429;-64
2023/06/30 02:50:15;;;;;;;5.32;2.25;;;12.40;99.90;;;;;;5120084;27;20035;-62
2023/06/30 02:52:41;;;;;;;5.85;2.47;;;12.30;99.90;;;;;;5104946;27;20030;-63
2023/06/30 02:55:07;;;;;;;7.53;2.58;;;12.30;99.90;;;;;;5122394;27;20379;-62
2023/06/30 02:57:32;;;;;;;3.55;2.47;;;12.30;99.90;;;;;;5143439;27;20393;-63
2023/06/30 02:59:58;;;;;;;6.60;2.22;;;12.20;99.90;;;;;;5123696;27;20043;-62
2023/06/30 03:02:24;;;;;;;5.72;2.78;;;12.20;99.90;;;;;;5122400;27;20054;-63
2023/06/30 03:04:49;;;;;;;4.88;2.40;;;12.20;99.90;;;;;;5129885;27;20047;-64
2023/06/30 03:07:16;;;;;;;6.72;3.10;;;12.20;99.90;;;;;;5138798;27;20401;-63
2023/06/30 03:09:42;;;;;;;7.38;2.75;;;12.20;99.90;;;;;;5120402;27;20102;-63
2023/06/30 03:12:08;;;;;;;3.70;2.78;;;12.10;99.90;;;;;;5125097;27;20043;-62
2023/06/30 03:14:34;;;;;;;5.97;2.85;;;12.10;99.90;;;;;;5121718;27;20510;-63
2023/06/30 03:16:59;;;;;;;4.70;2.90;;;12.10;99.90;;;;;;5123541;27;20051;-62
2023/06/30 03:19:25;;;;;;;5.38;2.75;;;12.00;99.90;;;;;;5127014;27;20031;-63
2023/06/30 03:21:51;;;;;;;5.78;3.03;;;12.00;99.90;;;;;;5122885;27;20481;-62
2023/06/30 03:24:16;;;;;;;8.30;3.03;;;11.90;99.90;;;;;;5125967;27;20043;-64
2023/06/30 03:26:42;;;;;;;7.10;3.30;;;11.90;99.90;;;;;;5127968;27;20050;-63
2023/06/30 03:29:08;;;;;;;6.60;2.92;;;11.90;99.90;;;;;;5124475;27;20133;-63
2023/06/30 03:31:33;;;;;;;6.80;3.17;;;11.90;99.90;;;;;;5147192;27;20039;-62
2023/06/30 03:33:59;;;;;;;5.97;2.63;;;11.80;99.90;;;;;;5128537;27;20035;-62
2023/06/30 03:36:25;;;;;;;6.70;2.80;;;11.80;99.90;;;;;;5122961;27;20035;-62
2023/06/30 03:38:50;;;;;;;6.18;2.78;;;11.80;99.90;;;;;;5128653;27;20045;-63
2023/06/30 03:41:16;;;;;;;4.82;2.55;;;11.80;99.90;;;;;;5128562;27;20115;-63
2023/06/30 03:43:41;;;;;;;5.07;2.78;;;11.80;99.90;;;;;;5128768;27;20039;-63
2023/06/30 03:46:09;;;;;;;8.93;3.33;;;11.80;99.90;;;;;;5131453;27;20046;-64
2023/06/30 03:48:35;;;;;;;5.30;2.95;;;11.80;99.90;;;;;;5128574;27;20061;-62
2023/06/30 03:51:01;;;;;;;6.65;2.60;;;11.80;99.90;;;;;;5121368;27;20063;-64
2023/06/30 03:53:26;;;;;;;4.90;2.47;;;11.70;99.90;;;;;;5130760;27;20039;-62
2023/06/30 03:55:52;;;;;;;5.88;2.22;;;11.70;99.90;;;;;;5124174;27;20031;-62
2023/06/30 03:58:18;;;;;;;6.22;2.60;;;11.80;99.90;;;;;;5123985;27;20043;-62
2023/06/30 04:00:43;;;;;;;5.72;3.13;;;11.80;99.90;;;;;;5123778;27;20078;-62
2023/06/30 04:03:09;;;;;;;4.57;2.80;;;11.80;99.90;;;;;;5125528;27;20478;-63
2023/06/30 04:05:35;;;;;;;6.68;3.00;;;11.80;99.90;;;;;;5122131;27;20516;-63
2023/06/30 04:08:00;;;;;;;6.75;3.15;;;11.80;99.90;;;;;;5150373;27;20030;-62
2023/06/30 04:10:26;;;;;;;7.50;2.85;;;11.80;99.90;;;;;;5139190;27;20035;-61
2023/06/30 04:12:52;;;;;;;4.22;2.58;;;11.80;99.90;;;;;;5128609;27;20117;-62
2023/06/30 04:15:17;;;;;;;5.55;2.97;;;11.80;99.90;;;;;;5105072;27;20046;-63
2023/06/30 04:17:43;;;;;;;5.88;3.20;;;11.90;99.90;;;;;;5126929;27;20056;-63
2023/06/30 04:20:09;;;;;;;4.05;2.83;;;11.90;99.90;;;;;;5126580;27;20035;-62
2023/06/30 04:22:38;;;;;;;5.53;2.80;;;11.90;99.90;;;;;;5122182;27;20505;-62
2023/06/30 04:25:07;;;;;;;5.18;3.00;;;11.90;99.90;;;;;;5146954;27;20118;-63
2023/06/30 04:27:33;;;;;;;7.22;3.08;;;12.00;99.90;;;;;;5123478;27;20075;-63
2023/06/30 04:29:58;;;;;;;9.32;2.80;;;12.10;99.90;;;;;;5147166;27;20130;-63
2023/06/30 04:32:24;;;;;;;7.32;2.70;;;12.20;99.90;;;;;;5121928;27;20050;-63
2023/06/30 04:34:50;;;;;;;6.60;2.58;;;12.20;99.90;;;;;;5127212;27;20031;-62
2023/06/30 04:37:15;;;;;;;8.25;2.90;;;12.30;99.90;;;;;;5110724;27;20070;-64
2023/06/30 04:39:42;;;;;;;5.32;3.30;;;12.30;99.90;;;;;;5110600;27;20095;-63
2023/06/30 04:42:08;;;;;;;6.45;3.13;;;12.50;99.90;;;;;;5145686;27;20564;-63
2023/06/30 04:44:33;;;;;;;7.00;3.28;;;12.50;99.90;;;;;;5124661;28;20053;-63
2023/06/30 04:47:00;;;;;;;7.93;3.42;;;12.60;99.90;;;;;;5132748;27;20137;-62
2023/06/30 04:49:26;;;;;;;5.50;3.22;;;12.70;99.90;;;;;;5125553;27;20110;-63
2023/06/30 04:51:52;;;;;;;8.52;3.50;;;12.80;99.90;;;;;;5144803;27;20039;-62
2023/06/30 04:54:19;;;;;;;6.05;2.88;;;12.90;99.90;;;;;;5135379;27;20105;-62
2023/06/30 04:56:45;;;;;;;9.57;3.40;;;13.00;99.90;;;;;;5129459;27;20047;-62
2023/06/30 04:59:10;;;;;;;5.43;2.97;;;13.10;99.90;;;;;;5131418;27;20064;-62
2023/06/30 05:01:36;;;;;;;7.65;3.13;;;13.20;99.90;;;;;;5144773;27;20038;-63
2023/06/30 05:04:01;;;;;;;7.22;3.30;;;13.30;99.90;;;;;;5130703;27;20527;-63
2023/06/30 05:06:27;;;;;;;8.40;3.15;;;13.40;99.90;;;;;;5128729;27;20055;-63
2023/06/30 05:08:52;;;;;;;7.97;2.88;;;13.50;99.90;;;;;;5148204;27;20135;-64
2023/06/30 05:11:18;;;;;;;7.40;2.53;;;13.50;99.90;;;;;;5130407;27;20035;-64
2023/06/30 05:13:44;;;;;;;6.07;2.72;;;13.70;99.90;;;;;;5146183;27;20114;-63
2023/06/30 05:16:12;;;;;;;5.20;2.83;;;13.70;99.90;;;;;;5147246;27;20031;-64
2023/06/30 05:18:37;;;;;;;8.52;2.60;;;13.90;99.90;;;;;;5144389;27;20043;-64
2023/06/30 05:21:03;;;;;;;5.90;3.50;;;14.00;99.90;;;;;;5111051;27;20057;-63
2023/06/30 05:23:29;;;;;;;8.38;2.80;;;14.10;99.90;;;;;;5128564;27;20088;-64
2023/06/30 05:25:54;;;;;;;9.07;2.83;;;14.10;99.90;;;;;;5147609;27;20112;-62
2023/06/30 05:28:20;;;;;;;5.85;2.47;;;14.20;99.90;;;;;;5120425;27;20039;-64
2023/06/30 05:30:46;;;;;;;5.07;2.53;;;14.20;99.90;;;;;;5129612;27;20039;-62
2023/06/30 05:33:11;;;;;;;6.68;3.08;;;14.20;99.90;;;;;;5128142;27;20031;-64
2023/06/30 05:35:37;;;;;;;7.78;2.33;;;14.30;99.90;;;;;;5118603;27;20132;-64
2023/06/30 05:38:05;;;;;;;6.90;2.30;;;14.50;99.90;;;;;;5120766;27;20182;-65
2023/06/30 05:40:30;;;;;;;6.03;2.13;;;14.60;99.90;;;;;;5140855;27;20509;-63
2023/06/30 05:42:56;;;;;;;6.93;1.92;;;14.70;99.90;;;;;;5116594;27;20041;-63
2023/06/30 05:45:22;;;;;;;6.85;2.25;;;14.80;99.90;;;;;;5117991;27;20068;-62
2023/06/30 05:47:48;;;;;;;4.55;2.33;;;14.90;99.90;;;;;;5122142;27;20043;-64
2023/06/30 05:50:13;;;;;;;4.90;2.25;;;14.90;99.90;;;;;;5133961;27;20052;-63
2023/06/30 05:52:39;;;;;;;5.10;1.98;;;14.90;99.90;;;;;;5118513;27;20043;-63
2023/06/30 05:55:05;;;;;;;9.57;3.00;;;15.10;99.90;;;;;;5115800;27;20468;-63
2023/06/30 05:57:31;;;;;;;5.47;2.47;;;15.20;99.90;;;;;;5141385;27;20041;-64
2023/06/30 05:59:57;;;;;;;8.65;2.40;;;15.50;99.90;;;;;;5149853;27;20039;-64
2023/06/30 06:02:23;;;;;;;7.15;2.40;;;15.70;99.90;;;;;;5120659;27;20055;-64
2023/06/30 06:04:51;;;;;;;7.57;2.38;;;15.80;99.90;;;;;;5132362;27;20061;-65
2023/06/30 06:07:17;;;;;;;7.47;1.73;;;16.00;99.90;;;;;;5130375;27;20065;-63
2023/06/30 06:09:42;;;;;;;5.30;1.60;;;16.20;99.90;;;;;;5132478;27;20035;-65
2023/06/30 06:12:08;;;;;;;7.82;1.60;;;16.30;99.90;;;;;;5130134;27;20038;-63
2023/06/30 06:14:34;;;;;;;6.15;1.30;;;16.50;99.90;;;;;;5126680;27;20038;-64
2023/06/30 06:16:59;;;;;;;7.10;1.40;;;16.70;99.90;;;;;;5126090;27;20485;-63
2023/06/30 06:19:25;;;;;;;8.15;1.30;;;16.80;99.90;;;;;;5127491;27;20035;-62
2023/06/30 06:21:51;;;;;;;8.02;2.30;;;17.00;99.90;;;;;;5131980;27;20078;-64
2023/06/30 06:24:16;;;;;;;5.60;1.40;;;17.10;99.90;;;;;;5119568;27;20031;-63
2023/06/30 06:26:42;;;;;;;4.10;1.23;;;17.20;99.90;;;;;;5118637;27;20058;-64
2023/06/30 06:29:08;;;;;;;6.22;1.20;;;17.20;99.90;;;;;;5097764;27;20055;-64
2023/06/30 06:31:33;;;;;;;5.93;1.38;;;17.40;99.90;;;;;;5152974;27;20508;-63
2023/06/30 06:33:59;;;;;;;7.30;1.80;;;17.40;99.90;;;;;;5149727;27;20119;-64
2023/06/30 06:36:25;;;;;;;5.72;1.10;;;17.30;99.90;;;;;;5146537;27;20428;-62
2023/06/30 06:38:50;;;;;;;4.93;1.10;;;17.20;99.90;;;;;;5118283;27;20043;-64
2023/06/30 06:41:16;;;;;;;6.05;1.00;;;17.20;99.90;;;;;;5134535;27;20500;-64
2023/06/30 06:43:42;;;;;;;3.45;1.02;;;17.30;99.90;;;;;;5117064;27;20058;-64
2023/06/30 06:46:08;;;;;;;6.57;1.20;;;17.40;99.90;;;;;;5114443;27;20546;-63
2023/06/30 06:48:34;;;;;;;6.20;1.42;;;17.40;99.90;;;;;;5114322;27;20100;-63
2023/06/30 06:51:01;;;;;;;7.55;1.40;;;17.50;99.90;;;;;;5117077;27;20450;-63
2023/06/30 06:53:35;;;;;;;4.65;1.17;;;17.60;99.90;;;;;;5120574;27;20446;-65
2023/06/30 06:56:03;;;;;;;5.13;1.20;;;17.60;99.90;;;;;;5130531;27;20038;-63
2023/06/30 06:58:31;;;;;;;3.28;1.10;;;17.50;99.90;;;;;;5147143;27;21572;-64
2023/06/30 07:00:57;;;;;;;6.32;1.33;;;17.50;99.90;;;;;;5107336;27;20516;-62
2023/06/30 07:03:23;;;;;;;5.80;2.30;;;17.40;99.90;;;;;;5127036;27;20827;-64
2023/06/30 07:05:49;;;;;;;3.67;1.30;;;17.40;99.90;;;;;;5140571;27;20055;-64
2023/06/30 07:08:19;;;;;;;5.07;1.30;;;17.40;99.90;;;;;;5126677;27;20412;-63
2023/06/30 07:10:45;;;;;;;2.88;1.00;;;17.60;99.90;;;;;;5122960;27;20042;-63
2023/06/30 07:13:12;;;;;;;8.52;1.23;;;17.90;99.90;;;;;;5131613;27;20485;-64
2023/06/30 07:15:37;;;;;;;7.13;1.27;;;17.80;99.90;;;;;;5144304;27;20039;-64
2023/06/30 07:18:03;;;;;;;2.13;0.90;;;17.80;99.90;;;;;;5119362;27;20035;-62
2023/06/30 07:20:29;;;;;;;7.53;1.88;;;18.00;99.90;;;;;;5130500;27;20113;-63
2023/06/30 07:22:56;;;;;;;5.43;1.27;;;18.20;99.90;;;;;;5119665;27;20043;-63
2023/06/30 07:25:25;;;;;;;5.75;1.10;;;18.30;99.90;;;;;;5141234;27;20037;-63
2023/06/30 07:27:53;;;;;;;8.13;1.40;;;18.50;99.90;;;;;;5124024;27;20031;-62
2023/06/30 07:30:21;;;;;;;6.97;1.40;;;18.60;99.90;;;;;;5119212;27;20042;-64
2023/06/30 07:32:47;;;;;;;5.82;1.35;;;18.60;99.90;;;;;;5128883;27;20378;-64
2023/06/30 07:35:13;;;;;;;3.65;1.15;;;18.50;99.90;;;;;;5125230;27;20038;-64
2023/06/30 07:37:39;;;;;;;3.35;1.38;;;18.60;99.90;;;;;;5125573;27;20103;-64
2023/06/30 07:40:06;;;;;;;7.35;1.02;;;18.60;99.90;;;;;;5125957;27;20026;-62
2023/06/30 07:42:31;;;;;;;4.15;1.00;;;18.80;99.90;;;;;;5129323;27;20512;-63
2023/06/30 07:44:57;;;;;;;3.10;0.80;;;18.90;99.90;;;;;;5127086;27;20135;-62
2023/06/30 07:47:23;;;;;;;4.60;1.00;;;18.90;99.90;;;;;;5126758;27;20473;-65
2023/06/30 07:49:48;;;;;;;3.28;1.00;;;18.80;99.90;;;;;;5125697;27;20038;-64
2023/06/30 07:52:14;;;;;;;6.03;1.02;;;18.90;99.90;;;;;;5117536;27;20468;-64
2023/06/30 07:54:41;;;;;;;2.13;1.00;;;19.00;99.90;;;;;;5121144;27;20058;-65
2023/06/30 07:57:07;;;;;;;3.03;1.00;;;19.00;99.90;;;;;;5124152;27;20050;-63
2023/06/30 07:59:33;;;;;;;2.95;1.05;;;19.10;99.90;;;;;;5123645;27;20030;-63
2023/06/30 08:01:59;;;;;;;3.15;1.00;;;19.10;99.90;;;;;;5103960;27;20049;-64
2023/06/30 08:04:25;;;;;;;2.80;1.10;;;19.30;99.90;;;;;;5115299;27;20545;-62
2023/06/30 08:06:50;;;;;;;7.35;1.75;;;19.40;99.90;;;;;;5145970;27;20039;-63
2023/06/30 08:09:16;;;;;;;3.50;1.10;;;19.50;99.90;;;;;;5114348;27;20108;-64
2023/06/30 08:11:41;;;;;;;3.38;0.80;;;19.70;99.90;;;;;;5137972;27;20047;-64
2023/06/30 08:14:07;;;;;;;5.10;1.17;;;19.90;99.90;;;;;;5126656;27;20034;-63
2023/06/30 08:16:33;;;;;;;3.22;1.00;;;19.90;99.70;;;;;;5126217;27;20039;-64
2023/06/30 08:18:59;;;;;;;4.82;1.02;;;19.90;99.40;;;;;;5143247;27;20031;-64
2023/06/30 08:21:25;;;;;;;9.20;1.33;;;20.10;99.90;;;;;;5125010;27;20678;-64
2023/06/30 08:23:50;;;;;;;5.35;1.10;;;20.30;99.80;;;;;;5121704;27;20406;-64
2023/06/30 08:26:16;;;;;;;2.10;0.93;;;20.30;99.50;;;;;;5124586;27;20051;-63
2023/06/30 08:28:42;;;;;;;6.20;1.20;;;20.20;99.70;;;;;;5125062;27;20062;-63
2023/06/30 08:31:07;;;;;;;28.48;2.33;;;20.30;98.50;;;;;;5122837;27;20537;-64
2023/06/30 08:33:33;;;;;;;13.02;1.20;;;20.40;99.10;;;;;;5113585;28;20050;-63
2023/06/30 08:36:00;;;;;;;14.20;1.30;;;20.50;99.10;;;;;;5113895;27;20070;-64
2023/06/30 08:38:26;;;;;;;5.45;1.10;;;20.40;98.50;;;;;;5113826;28;20047;-64
2023/06/30 08:40:51;;;;;;;6.50;1.20;;;20.10;99.10;;;;;;5124122;27;20499;-64
2023/06/30 08:43:21;;;;;;;6.75;1.08;;;20.00;99.90;;;;;;5126554;27;20043;-63
2023/06/30 08:45:48;;;;;;;8.95;1.25;;;19.80;99.90;;;;;;5130273;27;20043;-65
2023/06/30 08:48:18;;;;;;;7.75;1.10;;;19.70;99.90;;;;;;5130625;27;20075;-63
2023/06/30 08:50:44;;;;;;;8.95;1.55;;;19.40;99.90;;;;;;5123580;27;20515;-63
2023/06/30 08:53:10;;;;;;;6.75;1.40;;;19.30;99.90;;;;;;5125017;27;21484;-63
2023/06/30 08:55:36;;;;;;;9.80;1.50;;;19.20;99.90;;;;;;5105124;28;20180;-65
2023/06/30 08:58:02;;;;;;;7.22;1.50;;;19.00;99.90;;;;;;5122232;27;20375;-65
2023/06/30 09:00:28;;;;;;;4.13;1.33;;;19.00;99.90;;;;;;5130386;27;20037;-65
2023/06/30 09:02:55;;;;;;;4.57;1.20;;;19.30;99.90;;;;;;5129405;27;20043;-63
2023/06/30 09:05:23;;;;;;;1.88;0.80;;;19.60;99.90;;;;;;5140252;27;20189;-65
2023/06/30 09:07:58;;;;;;;5.50;1.42;;;20.00;99.90;;;;;;5123690;28;20566;-64
2023/06/30 09:10:27;;;;;;;4.32;1.00;;;20.30;98.50;;;;;;5120066;27;20489;-63
2023/06/30 09:13:00;;;;;;;4.63;0.90;;;20.60;99.40;;;;;;5125546;27;20043;-63
2023/06/30 09:15:26;;;;;;;6.55;1.08;;;20.70;99.00;;;;;;5126433;27;20404;-63
2023/06/30 09:17:53;;;;;;;3.28;1.10;;;20.50;98.10;;;;;;5141189;27;20034;-64
2023/06/30 09:20:20;;;;;;;2.67;1.08;;;20.40;98.30;;;;;;5109543;27;20042;-65
2023/06/30 09:22:46;;;;;;;2.92;1.17;;;20.60;98.60;;;;;;5141938;27;20068;-64
2023/06/30 09:25:27;;;;;;;6.40;1.08;;;20.50;97.50;;;;;;5123306;27;20387;-64
2023/06/30 09:27:54;;;;;;;6.53;1.13;;;20.60;97.50;;;;;;5120455;27;20042;-63
2023/06/30 09:30:33;;;;;;;6.97;1.08;;;20.80;97.10;;;;;;5139549;27;20404;-65
2023/06/30 09:32:59;;;;;;;5.22;1.00;;;21.00;96.60;;;;;;5140776;27;20079;-65
2023/06/30 09:35:25;;;;;;;2.35;0.93;;;21.10;96.10;;;;;;5122560;27;20427;-65
2023/06/30 09:37:53;;;;;;;16.67;1.88;;;21.30;96.20;;;;;;5109044;27;20041;-64
2023/06/30 09:40:24;;;;;;;4.03;1.13;;;21.50;96.10;;;;;;5109477;27;20083;-63
2023/06/30 09:42:53;;;;;;;7.10;1.63;;;21.40;95.90;;;;;;5124236;27;20035;-64
2023/06/30 09:45:19;;;;;;;81.82;6.30;;;21.50;95.90;;;;;;5123306;27;20043;-63
2023/06/30 09:47:52;;;;;;;7.90;1.20;;;21.40;94.40;;;;;;5117911;27;20390;-65
2023/06/30 09:50:30;;;;;;;5.00;1.38;;;21.20;93.90;;;;;;5123403;27;20084;-63
2023/06/30 09:52:56;;;;;;;4.28;1.00;;;20.90;95.70;;;;;;5145600;27;20080;-64
2023/06/30 09:55:22;;;;;;;4.22;1.00;;;20.50;95.70;;;;;;5128136;27;20346;-64
2023/06/30 09:57:48;;;;;;;2.20;1.00;;;20.20;96.30;;;;;;5126926;27;20043;-64
2023/06/30 10:00:16;;;;;;;2.80;1.17;;;19.90;96.80;;;;;;5129387;27;20027;-63
2023/06/30 10:02:43;;;;;;;4.88;1.17;;;19.80;97.20;;;;;;5125470;27;20054;-64
2023/06/30 10:05:10;;;;;;;2.85;0.90;;;19.90;97.40;;;;;;5123544;27;20532;-64
2023/06/30 10:07:37;;;;;;;4.90;1.27;;;19.90;96.90;;;;;;5123121;27;20055;-64
2023/06/30 10:10:03;;;;;;;4.68;0.82;;;20.30;96.50;;;;;;5119700;27;20039;-64
2023/06/30 10:12:35;;;;;;;8.32;1.10;;;21.00;96.90;;;;;;5129217;27;20039;-64
2023/06/30 10:15:02;;;;;;;2.95;0.90;;;21.60;96.10;;;;;;5145227;27;20040;-64
2023/06/30 10:17:29;;;;;;;3.42;1.35;;;22.20;95.50;;;;;;5127689;27;20045;-63
2023/06/30 10:19:56;;;;;;;6.50;0.85;;;21.80;91.70;;;;;;5129679;27;20428;-64
2023/06/30 10:22:21;;;;;;;2.30;0.80;;;21.50;91.90;;;;;;5127098;27;20038;-65
2023/06/30 10:24:48;;;;;;;2.05;1.00;;;21.30;91.80;;;;;;5145032;27;20070;-62
2023/06/30 10:27:18;;;;;;;4.22;0.95;;;21.20;92.10;;;;;;5107664;27;20365;-63
2023/06/30 10:29:47;;;;;;;3.40;1.00;;;21.60;92.30;;;;;;5122467;27;20553;-64
2023/06/30 10:32:13;;;;;;;3.88;1.05;;;21.80;91.70;;;;;;5124683;27;20084;-63
2023/06/30 10:34:38;;;;;;;2.08;1.00;;;21.80;90.80;;;;;;5127820;27;20038;-64
2023/06/30 10:37:05;;;;;;;1.65;0.73;;;21.60;90.40;;;;;;5145098;27;20546;-64
2023/06/30 10:39:31;;;;;;;3.63;1.20;;;21.50;90.10;;;;;;5125201;27;20049;-63
2023/06/30 10:42:00;;;;;;;3.10;0.90;;;21.40;90.40;;;;;;5144096;27;20077;-64
2023/06/30 10:44:39;;;;;;;4.65;1.08;;;21.20;89.80;;;;;;5107221;27;20409;-64
2023/06/30 10:47:05;;;;;;;3.33;1.10;;;21.20;88.90;;;;;;5141260;27;20401;-64
2023/06/30 10:49:53;;;;;;;2.55;0.93;;;21.20;90.70;;;;;;5142544;27;20034;-65
2023/06/30 10:52:29;;;;;;;2.08;0.90;;;21.30;90.50;;;;;;5126013;27;20042;-64
2023/06/30 10:55:03;;;;;;;3.65;1.00;;;21.30;90.30;;;;;;5124773;27;20046;-64
2023/06/30 10:57:35;;;;;;;4.40;1.30;;;21.10;90.70;;;;;;5123363;27;20508;-63
2023/06/30 11:00:11;;;;;;;;;;;20.90;91.50;;;;;;5127327;27;20454;-65
2023/06/30 11:02:53;;;;;;;1.55;0.85;;;21.00;93.30;;;;;;5125098;27;19950;-63
2023/06/30 11:05:25;;;;;;;2.53;0.93;;;21.00;91.60;;;;;;5118468;27;20065;-64
2023/06/30 11:08:07;;;;;;;2.45;1.10;;;21.20;91.30;;;;;;5118881;27;20074;-65
2023/06/30 11:10:32;;;;;;;;;;;21.40;91.60;;;;;;5121773;27;20035;-65
2023/06/30 11:13:09;;;;;;;5.63;1.23;;;21.70;91.30;;;;;;5120088;27;19926;-65
2023/06/30 11:15:43;;;;;;;5.53;1.52;;;22.10;90.80;;;;;;5127438;27;20091;-62
2023/06/30 11:18:12;;;;;;;4.03;1.10;;;22.20;90.20;;;;;;5119360;27;20133;-63
2023/06/30 11:20:38;;;;;;;2.33;1.10;;;22.30;89.80;;;;;;5117318;27;20052;-64
2023/06/30 11:23:17;;;;;;;4.50;1.05;;;22.50;86.00;;;;;;5123032;27;20043;-63
2023/06/30 11:25:43;;;;;;;3.60;1.17;;;22.70;86.90;;;;;;5123241;27;20043;-63
2023/06/30 11:28:11;;;;;;;3.55;0.98;;;22.50;88.70;;;;;;5121476;27;20100;-65
2023/06/30 11:30:41;;;;;;;3.20;1.23;;;22.50;89.00;;;;;;5120176;27;20066;-63
2023/06/30 11:33:07;;;;;;;3.42;1.20;;;22.30;89.90;;;;;;5121280;27;20039;-64
2023/06/30 11:35:35;;;;;;;6.30;1.20;;;22.40;90.10;;;;;;5122825;27;20046;-64
2023/06/30 11:38:01;;;;;;;3.25;1.00;;;22.70;90.60;;;;;;5122532;27;20043;-63
2023/06/30 11:40:29;;;;;;;5.18;1.30;;;22.60;89.60;;;;;;5124910;27;20086;-64
2023/06/30 11:42:55;;;;;;;5.00;1.20;;;22.30;89.10;;;;;;5125639;27;20115;-63
2023/06/30 11:45:21;;;;;;;3.88;1.30;;;22.10;90.10;;;;;;5110775;27;20122;-64
2023/06/30 11:47:50;;;;;;;3.72;1.30;;;22.20;90.50;;;;;;5113999;27;20027;-65
2023/06/30 11:50:16;;;;;;;5.93;2.50;;;22.10;89.70;;;;;;5128068;27;20050;-63
2023/06/30 11:52:43;;;;;;;3.35;1.25;;;21.90;89.80;;;;;;5124577;27;20386;-64
2023/06/30 11:55:12;;;;;;;3.88;1.40;;;21.90;90.40;;;;;;5130164;27;20084;-64
2023/06/30 11:57:43;;;;;;;4.30;1.40;;;21.80;90.70;;;;;;5119681;27;20054;-64
2023/06/30 12:00:14;;;;;;;2.95;1.30;;;21.90;91.80;;;;;;5110572;27;20050;-64
2023/06/30 12:02:45;;;;;;;3.40;1.50;;;21.90;91.80;;;;;;5121831;27;20083;-63
2023/06/30 12:05:18;;;;;;;4.85;1.38;;;22.10;92.00;;;;;;5120494;27;20043;-63
2023/06/30 12:07:46;;;;;;;3.25;1.20;;;22.30;91.00;;;;;;5122773;27;20058;-63
2023/06/30 12:10:13;;;;;;;3.95;1.30;;;22.40;89.60;;;;;;5128111;27;20073;-64
2023/06/30 12:12:39;;;;;;;3.63;1.10;;;22.40;89.50;;;;;;5124862;27;20050;-64
2023/06/30 12:15:08;;;;;;;3.70;1.45;;;22.30;89.30;;;;;;5102805;27;20391;-65
2023/06/30 12:17:44;;;;;;;4.13;1.30;;;22.20;88.90;;;;;;5118988;27;20047;-63
2023/06/30 12:20:12;;;;;;;7.72;1.70;;;22.20;87.90;;;;;;5123705;27;20486;-64
2023/06/30 12:22:44;;;;;;;1.95;1.05;;;22.20;89.00;;;;;;5110991;27;20059;-64
2023/06/30 12:25:11;;;;;;;7.47;1.30;;;22.20;89.80;;;;;;5123117;27;20118;-64
2023/06/30 12:27:43;;;;;;;5.03;1.30;;;22.30;90.10;;;;;;5117358;27;20048;-63
2023/06/30 12:30:18;;;;;;;3.17;1.40;;;22.50;90.60;;;;;;5123566;28;20110;-64
2023/06/30 12:32:45;;;;;;;3.55;1.40;;;22.60;90.60;;;;;;5124742;27;20046;-65
2023/06/30 12:35:12;;;;;;;3.78;1.30;;;22.60;88.90;;;;;;5118380;27;20039;-63
2023/06/30 12:37:39;;;;;;;3.22;1.40;;;22.60;87.50;;;;;;5122949;28;20047;-63
2023/06/30 12:40:06;;;;;;;3.05;1.45;;;22.60;88.40;;;;;;5122832;27;20410;-64
2023/06/30 12:42:32;;;;;;;4.15;1.48;;;22.60;89.20;;;;;;5123847;28;20485;-64
2023/06/30 12:44:58;;;;;;;4.20;1.48;;;22.60;88.40;;;;;;5120374;28;20486;-63
2023/06/30 12:47:24;;;;;;;3.85;1.85;;;22.60;89.20;;;;;;5115306;28;20046;-63